createdAt,value
2024-03-03T00:02:14.014Z,9.40
2024-03-03T00:04:42.473Z,9.41
2024-03-03T00:07:10.840Z,9.42
2024-03-03T00:09:39.291Z,9.41
2024-03-03T00:12:07.885Z,9.41
2024-03-03T00:14:36.524Z,9.42
2024-03-03T00:17:05.132Z,9.44
2024-03-03T00:19:34.960Z,9.50
2024-03-03T00:22:03.706Z,9.52
2024-03-03T00:24:32.092Z,9.52
2024-03-03T00:27:01.139Z,9.52
2024-03-03T00:29:29.410Z,9.53
2024-03-03T00:31:58.290Z,9.54
2024-03-03T00:34:26.752Z,9.55
2024-03-03T00:36:56.577Z,9.55
2024-03-03T00:39:24.962Z,9.54
2024-03-03T00:41:53.765Z,9.55
2024-03-03T00:44:22.100Z,9.56
2024-03-03T00:46:50.639Z,9.57
2024-03-03T00:49:19.026Z,9.59
2024-03-03T00:51:47.453Z,9.60
2024-03-03T00:54:17.239Z,9.62
2024-03-03T00:56:45.687Z,9.65
2024-03-03T00:59:17.433Z,9.64
2024-03-03T01:01:45.727Z,9.64
2024-03-03T01:04:15.397Z,9.69
2024-03-03T01:06:44.182Z,9.70
2024-03-03T01:09:12.576Z,9.71
2024-03-03T01:11:42.770Z,9.70
2024-03-03T01:14:11.204Z,9.69
2024-03-03T01:16:40.007Z,9.71
2024-03-03T01:19:08.403Z,9.72
2024-03-03T01:21:40.679Z,9.73
2024-03-03T01:24:09.189Z,9.73
2024-03-03T01:26:38.948Z,9.76
2024-03-03T01:29:08.883Z,9.82
2024-03-03T01:31:37.332Z,9.83
2024-03-03T01:34:05.654Z,9.84
2024-03-03T01:36:34.155Z,9.85
2024-03-03T01:39:03.105Z,9.89
2024-03-03T01:41:31.624Z,9.89
2024-03-03T01:44:00.035Z,9.90
2024-03-03T01:46:30.184Z,9.95
2024-03-03T01:48:59.028Z,9.99
2024-03-03T01:51:27.887Z,10.01
2024-03-03T01:53:56.236Z,10.05
2024-03-03T01:56:26.082Z,10.05
2024-03-03T01:58:55.026Z,10.07
2024-03-03T02:01:23.771Z,10.11
2024-03-03T02:03:53.056Z,10.11
2024-03-03T02:06:23.153Z,10.09
2024-03-03T02:08:51.629Z,10.09
2024-03-03T02:11:20.049Z,10.10
2024-03-03T02:13:48.546Z,10.13
2024-03-03T02:16:17.181Z,10.15
2024-03-03T02:18:45.810Z,10.17
2024-03-03T02:21:15.761Z,10.14
2024-03-03T02:23:45.603Z,10.14
2024-03-03T02:26:14.206Z,10.13
2024-03-03T02:28:42.813Z,10.19
2024-03-03T02:31:11.652Z,10.18
2024-03-03T02:33:39.982Z,10.19
2024-03-03T02:36:10.327Z,10.18
2024-03-03T02:38:39.526Z,10.18
2024-03-03T02:41:09.575Z,10.18
2024-03-03T02:43:38.363Z,10.19
2024-03-03T02:46:06.814Z,10.19
2024-03-03T02:48:35.218Z,10.19
2024-03-03T02:51:03.687Z,10.19
2024-03-03T02:53:31.973Z,10.20
2024-03-03T02:56:00.354Z,10.20
2024-03-03T02:58:30.310Z,10.21
2024-03-03T03:00:59.389Z,10.20
2024-03-03T03:03:27.805Z,10.20
2024-03-03T03:05:56.265Z,10.21
2024-03-03T03:08:24.690Z,10.21
2024-03-03T03:10:53.068Z,10.20
2024-03-03T03:13:22.627Z,10.22
2024-03-03T03:15:52.767Z,10.23
2024-03-03T03:18:22.051Z,10.26
2024-03-03T03:20:51.385Z,10.28
2024-03-03T03:23:19.660Z,10.29
2024-03-03T03:25:48.049Z,10.30
2024-03-03T03:28:16.486Z,10.32
2024-03-03T03:30:45.013Z,10.32
2024-03-03T03:33:14.787Z,10.33
2024-03-03T03:35:43.454Z,10.35
2024-03-03T03:38:11.812Z,10.35
2024-03-03T03:40:40.272Z,10.35
2024-03-03T03:43:08.711Z,10.37
2024-03-03T03:45:37.230Z,10.36
2024-03-03T03:48:05.940Z,10.36
2024-03-03T03:50:35.756Z,10.38
2024-03-03T03:53:04.765Z,10.38
2024-03-03T03:55:33.291Z,10.39
2024-03-03T03:58:01.683Z,10.38
2024-03-03T04:00:30.047Z,10.38
2024-03-03T04:02:58.351Z,10.38
2024-03-03T04:05:26.779Z,10.38
2024-03-03T04:07:56.562Z,10.39
2024-03-03T04:10:25.349Z,10.38
2024-03-03T04:12:53.808Z,10.37
2024-03-03T04:15:22.258Z,10.38
2024-03-03T04:17:50.700Z,10.38
2024-03-03T04:20:19.152Z,10.39
2024-03-03T04:22:47.535Z,10.38
2024-03-03T04:25:18.460Z,10.37
2024-03-03T04:27:46.964Z,10.40
2024-03-03T04:30:15.361Z,10.39
2024-03-03T04:32:43.979Z,10.41
2024-03-03T04:35:12.333Z,10.46
2024-03-03T04:37:40.732Z,10.45
2024-03-03T04:40:10.446Z,10.46
2024-03-03T04:42:40.376Z,10.49
2024-03-03T04:45:09.062Z,10.54
2024-03-03T04:47:37.599Z,10.53
2024-03-03T04:50:06.741Z,10.50
2024-03-03T04:52:35.161Z,10.53
2024-03-03T04:55:04.235Z,10.51
2024-03-03T04:57:32.692Z,10.50
2024-03-03T05:00:02.442Z,10.53
2024-03-03T05:02:31.384Z,10.54
2024-03-03T05:04:59.715Z,10.54
2024-03-03T05:07:29.066Z,10.58
2024-03-03T05:09:57.478Z,10.56
2024-03-03T05:12:26.121Z,10.54
2024-03-03T05:14:54.648Z,10.55
2024-03-03T05:17:24.590Z,10.56
2024-03-03T05:19:53.020Z,10.58
2024-03-03T05:22:21.341Z,10.59
2024-03-03T05:24:49.857Z,10.62
2024-03-03T05:27:19.063Z,10.59
2024-03-03T05:29:47.515Z,10.62
2024-03-03T05:32:15.906Z,10.70
2024-03-03T05:34:45.777Z,10.76
2024-03-03T05:37:14.283Z,10.80
2024-03-03T05:39:43.007Z,10.83
2024-03-03T05:42:12.415Z,10.91
2024-03-03T05:44:40.710Z,10.95
2024-03-03T05:47:10.820Z,10.98
2024-03-03T05:49:38.296Z,10.99
2024-03-03T05:52:09.045Z,11.00
2024-03-03T05:54:37.561Z,11.02
2024-03-03T05:57:06.391Z,11.01
2024-03-03T05:59:34.941Z,11.01
2024-03-03T06:02:03.415Z,11.01
2024-03-03T06:04:37.026Z,11.01
2024-03-03T06:07:06.213Z,11.04
2024-03-03T06:09:36.705Z,11.03
2024-03-03T06:12:07.256Z,11.03
2024-03-03T06:14:36.526Z,10.98
2024-03-03T06:17:05.006Z,10.98
2024-03-03T06:19:33.353Z,11.00
2024-03-03T06:22:02.007Z,11.02
2024-03-03T06:24:33.237Z,11.02
2024-03-03T06:27:03.444Z,11.00
2024-03-03T06:29:32.031Z,10.99
2024-03-03T06:32:01.563Z,11.00
2024-03-03T06:34:30.076Z,11.05
2024-03-03T06:36:58.445Z,11.04
2024-03-03T06:39:26.802Z,11.07
2024-03-03T06:41:55.136Z,11.07
2024-03-03T06:44:24.954Z,11.09
2024-03-03T06:46:53.284Z,11.13
2024-03-03T06:49:21.843Z,11.16
2024-03-03T06:51:50.316Z,11.21
2024-03-03T06:54:18.731Z,11.30
2024-03-03T06:56:48.171Z,11.37
2024-03-03T06:59:16.893Z,11.39
2024-03-03T07:01:46.709Z,11.41
2024-03-03T07:04:25.760Z,11.45
2024-03-03T07:06:55.394Z,11.50
2024-03-03T07:09:24.949Z,11.60
2024-03-03T07:11:53.658Z,11.58
2024-03-03T07:14:22.236Z,11.55
2024-03-03T07:16:52.902Z,11.50
2024-03-03T07:19:21.313Z,11.45
2024-03-03T07:21:49.963Z,11.47
2024-03-03T07:24:18.534Z,11.48
2024-03-03T07:26:46.932Z,11.49
2024-03-03T07:29:15.285Z,11.50
2024-03-03T07:31:43.770Z,11.51
2024-03-03T07:34:13.578Z,11.54
2024-03-03T07:36:42.558Z,11.59
2024-03-03T07:39:11.033Z,11.65
2024-03-03T07:41:39.481Z,11.65
2024-03-03T07:44:08.063Z,11.65
2024-03-03T07:46:36.866Z,11.69
2024-03-03T07:49:05.227Z,11.71
2024-03-03T07:51:36.011Z,11.72
2024-03-03T07:54:04.470Z,11.75
2024-03-03T07:56:32.773Z,11.78
2024-03-03T07:59:06.973Z,11.82
2024-03-03T08:01:37.015Z,11.87
2024-03-03T08:04:06.538Z,11.89
2024-03-03T08:06:36.404Z,11.90
2024-03-03T08:09:05.052Z,11.92
2024-03-03T08:11:35.058Z,11.88
2024-03-03T08:14:04.648Z,11.91
2024-03-03T08:16:34.698Z,12.09
2024-03-03T08:19:03.211Z,12.36
2024-03-03T08:21:31.868Z,12.43
2024-03-03T08:24:02.097Z,12.45
2024-03-03T08:26:30.418Z,12.42
2024-03-03T08:28:58.823Z,12.37
2024-03-03T08:31:27.205Z,12.39
2024-03-03T08:33:55.706Z,12.36
2024-03-03T08:36:24.296Z,12.31
2024-03-03T08:38:52.743Z,12.39
2024-03-03T08:41:22.457Z,12.59
2024-03-03T08:43:50.800Z,12.75
2024-03-03T08:46:19.447Z,12.70
2024-03-03T08:48:48.050Z,12.68
2024-03-03T08:51:16.494Z,12.69
2024-03-03T08:53:45.273Z,12.67
2024-03-03T08:56:13.584Z,12.66
2024-03-03T08:58:44.115Z,12.74
2024-03-03T09:01:16.036Z,12.93
2024-03-03T09:03:44.901Z,13.13
2024-03-03T09:06:13.296Z,13.29
2024-03-03T09:08:43.413Z,13.41
2024-03-03T09:11:13.404Z,13.57
2024-03-03T09:13:41.856Z,13.64
2024-03-03T09:16:13.243Z,13.61
2024-03-03T09:18:41.878Z,13.59
2024-03-03T09:21:10.769Z,13.49
2024-03-03T09:23:41.113Z,13.38
2024-03-03T09:26:09.529Z,13.37
2024-03-03T09:28:38.278Z,13.49
2024-03-03T09:31:06.911Z,13.72
2024-03-03T09:33:36.817Z,13.90
2024-03-03T09:36:07.680Z,13.95
2024-03-03T09:38:36.045Z,14.02
2024-03-03T09:41:04.486Z,14.18
2024-03-03T09:43:38.632Z,14.31
2024-03-03T09:46:08.920Z,14.26
2024-03-03T09:48:44.016Z,14.23
2024-03-03T09:51:14.132Z,14.11
2024-03-03T09:53:43.491Z,14.14
2024-03-03T09:56:12.556Z,14.19
2024-03-03T09:58:40.902Z,14.27
2024-03-03T10:01:11.611Z,14.37
2024-03-03T10:03:42.333Z,14.28
2024-03-03T10:06:11.941Z,14.15
2024-03-03T10:08:43.356Z,14.25
2024-03-03T10:11:17.713Z,14.39
2024-03-03T10:13:47.252Z,14.42
2024-03-03T10:16:16.669Z,14.45
2024-03-03T10:18:46.505Z,14.54
2024-03-03T10:21:15.829Z,14.57
2024-03-03T10:23:44.262Z,14.67
2024-03-03T10:26:12.613Z,14.90
2024-03-03T10:28:41.155Z,14.94
2024-03-03T10:31:13.128Z,14.85
2024-03-03T10:33:58.658Z,14.89
2024-03-03T10:36:27.154Z,15.16
2024-03-03T10:38:55.649Z,15.19
2024-03-03T10:41:24.092Z,15.20
2024-03-03T10:43:52.660Z,15.26
2024-03-03T10:46:21.817Z,15.23
2024-03-03T10:48:50.622Z,15.25
2024-03-03T10:51:21.641Z,15.24
2024-03-03T10:53:52.308Z,15.28
2024-03-03T10:56:21.166Z,15.32
2024-03-03T10:58:50.680Z,15.48
2024-03-03T11:01:19.593Z,15.51
2024-03-03T11:03:48.657Z,15.48
2024-03-03T11:06:17.777Z,15.57
2024-03-03T11:08:51.527Z,15.55
2024-03-03T11:11:23.031Z,15.62
2024-03-03T11:13:54.684Z,15.50
2024-03-03T11:16:26.965Z,15.60
2024-03-03T11:18:56.668Z,15.72
2024-03-03T11:21:29.330Z,15.70
2024-03-03T11:24:00.735Z,16.00
2024-03-03T11:26:33.217Z,15.96
2024-03-03T11:29:02.039Z,15.85
2024-03-03T11:31:30.695Z,15.82
2024-03-03T11:33:59.879Z,15.90
2024-03-03T11:36:28.806Z,15.85
2024-03-03T11:39:00.177Z,15.83
2024-03-03T11:41:30.677Z,15.91
2024-03-03T11:43:59.087Z,15.97
2024-03-03T11:46:46.553Z,16.10
2024-03-03T11:49:15.014Z,16.11
2024-03-03T11:51:44.387Z,16.14
2024-03-03T11:54:15.194Z,16.25
2024-03-03T11:56:46.979Z,16.27
2024-03-03T11:59:16.598Z,16.18
2024-03-03T12:01:48.371Z,15.90
2024-03-03T12:04:17.477Z,15.70
2024-03-03T12:06:47.558Z,15.77
2024-03-03T12:09:22.283Z,16.06
2024-03-03T12:11:51.167Z,16.10
2024-03-03T12:14:19.497Z,15.99
2024-03-03T12:16:47.931Z,16.09
2024-03-03T12:19:17.269Z,16.19
2024-03-03T12:21:46.866Z,16.17
2024-03-03T12:24:17.748Z,15.81
2024-03-03T12:26:46.194Z,15.84
2024-03-03T12:29:14.594Z,16.05
2024-03-03T12:31:43.064Z,16.14
2024-03-03T12:34:11.493Z,16.07
2024-03-03T12:36:40.082Z,15.90
2024-03-03T12:39:08.922Z,16.03
2024-03-03T12:41:39.099Z,16.05
2024-03-03T12:44:07.566Z,16.02
2024-03-03T12:46:41.429Z,15.93
2024-03-03T12:49:10.784Z,16.01
2024-03-03T12:51:39.706Z,16.13
2024-03-03T12:54:08.210Z,16.22
2024-03-03T12:56:36.512Z,16.34
2024-03-03T12:59:06.447Z,16.20
2024-03-03T13:01:36.068Z,16.21
2024-03-03T13:04:04.491Z,16.46
2024-03-03T13:06:32.835Z,16.23
2024-03-03T13:09:02.227Z,16.01
2024-03-03T13:11:30.678Z,16.20
2024-03-03T13:13:59.170Z,16.27
2024-03-03T13:16:30.580Z,16.26
2024-03-03T13:19:00.682Z,16.39
2024-03-03T13:21:29.510Z,16.33
2024-03-03T13:24:13.298Z,16.54
2024-03-03T13:26:42.606Z,16.58
2024-03-03T13:29:12.006Z,16.54
2024-03-03T13:31:42.099Z,16.56
2024-03-03T13:34:10.560Z,16.43
2024-03-03T13:36:39.041Z,16.35
2024-03-03T13:39:12.006Z,16.15
2024-03-03T13:41:40.888Z,15.95
2024-03-03T13:44:09.244Z,15.76
2024-03-03T13:46:37.674Z,15.78
2024-03-03T13:49:07.689Z,15.63
2024-03-03T13:51:36.048Z,15.52
2024-03-03T13:54:05.485Z,15.42
2024-03-03T13:56:34.024Z,15.22
2024-03-03T13:59:02.486Z,15.34
2024-03-03T14:01:30.933Z,15.51
2024-03-03T14:03:59.478Z,15.63
2024-03-03T14:06:29.304Z,15.81
2024-03-03T14:08:58.257Z,15.87
2024-03-03T14:11:26.943Z,15.92
2024-03-03T14:13:55.484Z,15.94
2024-03-03T14:16:23.937Z,16.01
2024-03-03T14:18:58.597Z,16.11
2024-03-03T14:21:29.134Z,16.05
2024-03-03T14:23:58.009Z,16.09
2024-03-03T14:26:26.315Z,16.08
2024-03-03T14:28:55.746Z,15.92
2024-03-03T14:31:24.408Z,15.68
2024-03-03T14:33:56.249Z,15.43
2024-03-03T14:36:24.979Z,15.28
2024-03-03T14:38:54.950Z,15.18
2024-03-03T14:41:23.980Z,15.06
2024-03-03T14:43:52.179Z,15.06
2024-03-03T14:46:20.716Z,15.07
2024-03-03T14:48:49.182Z,15.04
2024-03-03T14:51:17.921Z,15.07
2024-03-03T14:53:46.611Z,15.17
2024-03-03T14:56:16.896Z,15.21
2024-03-03T14:58:45.208Z,15.18
2024-03-03T15:01:13.625Z,15.18
2024-03-03T15:03:41.943Z,15.19
2024-03-03T15:06:10.361Z,15.15
2024-03-03T15:08:39.879Z,15.06
2024-03-03T15:11:08.624Z,15.04
2024-03-03T15:13:38.360Z,14.99
2024-03-03T15:16:07.328Z,14.96
2024-03-03T15:18:38.244Z,14.91
2024-03-03T15:21:07.107Z,14.82
2024-03-03T15:23:37.552Z,14.77
2024-03-03T15:26:08.538Z,14.73
2024-03-03T15:28:36.825Z,14.71
2024-03-03T15:31:06.695Z,14.67
2024-03-03T15:33:37.315Z,14.63
2024-03-03T15:36:06.531Z,14.63
2024-03-03T15:38:35.279Z,14.63
2024-03-03T15:41:03.538Z,14.59
2024-03-03T15:43:31.837Z,14.57
2024-03-03T15:46:00.444Z,14.58
2024-03-03T15:48:30.242Z,14.58
2024-03-03T15:50:58.885Z,14.56
2024-03-03T15:53:27.092Z,14.52
2024-03-03T15:55:58.283Z,14.52
2024-03-03T15:58:27.758Z,14.49
2024-03-03T16:00:57.258Z,14.47
2024-03-03T16:03:25.818Z,14.45
2024-03-03T16:05:55.631Z,14.40
2024-03-03T16:08:24.126Z,14.35
2024-03-03T16:10:54.864Z,14.29
2024-03-03T16:13:24.302Z,14.24
2024-03-03T16:15:52.942Z,14.19
2024-03-03T16:18:21.877Z,14.18
2024-03-03T16:20:50.448Z,14.16
2024-03-03T16:23:20.226Z,14.12
2024-03-03T16:25:48.628Z,14.08
2024-03-03T16:28:17.084Z,14.06
2024-03-03T16:30:45.617Z,14.03
2024-03-03T16:33:14.147Z,14.02
2024-03-03T16:35:45.807Z,13.98
2024-03-03T16:38:14.345Z,13.94
2024-03-03T16:40:44.370Z,13.89
2024-03-03T16:43:13.200Z,13.84
2024-03-03T16:45:41.559Z,13.83
2024-03-03T16:48:10.047Z,13.80
2024-03-03T16:50:38.486Z,13.75
2024-03-03T16:53:06.850Z,13.69
2024-03-03T16:55:35.285Z,13.66
2024-03-03T16:58:06.880Z,13.62
2024-03-03T17:00:35.402Z,13.63
2024-03-03T17:03:06.093Z,13.60
2024-03-03T17:05:35.752Z,13.57
2024-03-03T17:08:04.482Z,13.54
2024-03-03T17:10:32.975Z,13.52
2024-03-03T17:13:01.440Z,13.49
2024-03-03T17:15:31.320Z,13.48
2024-03-03T17:17:59.988Z,13.47
2024-03-03T17:20:28.471Z,13.43
2024-03-03T17:22:58.421Z,13.43
2024-03-03T17:25:26.926Z,13.43
2024-03-03T17:27:55.534Z,13.41
2024-03-03T17:30:24.049Z,13.40
2024-03-03T17:32:54.238Z,13.37
2024-03-03T17:35:27.226Z,13.33
2024-03-03T17:37:56.181Z,13.28
2024-03-03T17:40:27.812Z,13.24
2024-03-03T17:42:56.749Z,13.23
2024-03-03T17:45:26.142Z,13.22
2024-03-03T17:47:56.023Z,13.18
2024-03-03T17:50:24.466Z,13.14
2024-03-03T17:52:52.914Z,13.12
2024-03-03T17:55:21.318Z,13.11
2024-03-03T17:57:49.808Z,13.11
2024-03-03T18:00:18.399Z,13.09
2024-03-03T18:02:47.394Z,13.06
2024-03-03T18:05:17.187Z,13.04
2024-03-03T18:07:45.798Z,13.03
2024-03-03T18:10:14.451Z,13.01
2024-03-03T18:12:42.933Z,12.99
2024-03-03T18:15:11.803Z,12.98
2024-03-03T18:17:42.133Z,12.99
2024-03-03T18:20:11.687Z,12.96
2024-03-03T18:22:41.622Z,12.95
2024-03-03T18:25:10.547Z,12.92
2024-03-03T18:27:39.734Z,12.93
2024-03-03T18:30:09.817Z,12.90
2024-03-03T18:32:38.661Z,12.88
2024-03-03T18:35:09.523Z,12.89
2024-03-03T18:37:39.290Z,12.89
2024-03-03T18:40:11.939Z,12.90
2024-03-03T18:42:40.345Z,12.86
2024-03-03T18:45:09.105Z,12.83
2024-03-03T18:47:38.626Z,12.77
2024-03-03T18:50:10.933Z,12.78
2024-03-03T18:52:39.547Z,12.74
2024-03-03T18:55:10.058Z,12.70
2024-03-03T18:57:38.642Z,12.68
2024-03-03T19:00:09.312Z,12.68
2024-03-03T19:02:37.716Z,12.65
2024-03-03T19:05:08.176Z,12.61
2024-03-03T19:07:36.835Z,12.60
2024-03-03T19:10:05.810Z,12.58
2024-03-03T19:12:35.716Z,12.58
2024-03-03T19:15:04.135Z,12.57
2024-03-03T19:17:32.539Z,12.57
2024-03-03T19:20:01.314Z,12.53
2024-03-03T19:22:29.704Z,12.51
2024-03-03T19:24:59.814Z,12.47
2024-03-03T19:27:28.184Z,12.48
2024-03-03T19:29:58.347Z,12.46
2024-03-03T19:32:26.742Z,12.44
2024-03-03T19:34:55.256Z,12.42
2024-03-03T19:37:23.782Z,12.45
2024-03-03T19:39:55.574Z,12.44
2024-03-03T19:42:23.997Z,12.41
2024-03-03T19:44:52.332Z,12.39
2024-03-03T19:47:22.193Z,12.40
2024-03-03T19:49:50.596Z,12.42
2024-03-03T19:52:18.949Z,12.39
2024-03-03T19:54:47.446Z,12.41
2024-03-03T19:57:15.770Z,12.52
2024-03-03T19:59:45.214Z,12.58
2024-03-03T20:02:13.622Z,12.66
2024-03-03T20:04:43.545Z,12.76
2024-03-03T20:07:12.637Z,12.38
2024-03-03T20:09:43.017Z,12.75
2024-03-03T20:12:11.400Z,12.73
2024-03-03T20:14:40.156Z,12.69
2024-03-03T20:17:10.886Z,12.69
2024-03-03T20:19:42.499Z,12.72
2024-03-03T20:22:12.395Z,12.72
2024-03-03T20:24:41.181Z,12.73
2024-03-03T20:27:09.616Z,12.71
2024-03-03T20:29:37.976Z,12.72
2024-03-03T20:32:06.424Z,12.71
2024-03-03T20:34:34.991Z,12.70
2024-03-03T20:37:03.559Z,12.67
2024-03-03T20:39:33.354Z,12.59
2024-03-03T20:42:01.905Z,12.38
2024-03-03T20:44:30.305Z,12.20
2024-03-03T20:46:58.694Z,12.18
2024-03-03T20:49:27.477Z,12.27
2024-03-03T20:51:56.069Z,12.37
2024-03-03T20:54:24.473Z,12.43
2024-03-03T20:56:54.236Z,12.43
2024-03-03T20:59:22.928Z,12.45
2024-03-03T21:01:52.296Z,12.38
2024-03-03T21:04:20.620Z,12.27
2024-03-03T21:06:49.075Z,12.29
2024-03-03T21:09:17.437Z,12.33
2024-03-03T21:11:45.933Z,12.26
2024-03-03T21:14:15.715Z,12.10
2024-03-03T21:16:44.095Z,11.85
2024-03-03T21:19:12.445Z,11.61
2024-03-03T21:21:40.806Z,11.54
2024-03-03T21:24:09.305Z,11.43
2024-03-03T21:26:37.805Z,11.33
2024-03-03T21:29:06.154Z,11.32
2024-03-03T21:31:36.584Z,11.25
2024-03-03T21:34:06.500Z,11.23
2024-03-03T21:36:35.508Z,11.15
2024-03-03T21:39:04.189Z,11.05
2024-03-03T21:41:32.687Z,11.00
2024-03-03T21:44:01.047Z,10.93
2024-03-03T21:46:29.873Z,10.84
2024-03-03T21:48:59.780Z,10.80
2024-03-03T21:51:29.994Z,10.78
2024-03-03T21:53:58.591Z,10.69
2024-03-03T21:56:27.122Z,10.68
2024-03-03T21:58:57.047Z,10.73
2024-03-03T22:01:25.569Z,11.01
2024-03-03T22:03:54.818Z,11.10
2024-03-03T22:06:24.680Z,11.19
2024-03-03T22:08:57.655Z,11.42
2024-03-03T22:11:27.302Z,11.66
2024-03-03T22:13:56.946Z,11.87
2024-03-03T22:16:25.448Z,11.89
2024-03-03T22:18:53.875Z,11.93
2024-03-03T22:21:22.271Z,11.98
2024-03-03T22:23:51.981Z,12.05
2024-03-03T22:26:20.470Z,12.06
2024-03-03T22:28:49.620Z,12.03
2024-03-03T22:31:18.114Z,12.03
2024-03-03T22:33:46.905Z,12.00
2024-03-03T22:36:15.717Z,11.95
2024-03-03T22:38:44.088Z,11.90
2024-03-03T22:41:14.284Z,11.87
2024-03-03T22:43:42.746Z,11.84
2024-03-03T22:46:12.937Z,11.87
2024-03-03T22:48:42.042Z,11.93
2024-03-03T22:51:12.184Z,12.02
2024-03-03T22:53:40.642Z,12.05
2024-03-03T22:56:09.100Z,12.06
2024-03-03T22:58:39.034Z,12.11
2024-03-03T23:01:07.624Z,12.15
2024-03-03T23:03:36.047Z,12.20
2024-03-03T23:06:05.378Z,12.21
2024-03-03T23:08:33.733Z,12.29
2024-03-03T23:11:02.180Z,12.32
2024-03-03T23:13:30.701Z,12.35
2024-03-03T23:16:00.654Z,12.34
2024-03-03T23:18:29.106Z,12.34
2024-03-03T23:20:57.465Z,12.39
2024-03-03T23:23:26.415Z,12.35
2024-03-03T23:25:55.067Z,12.34
2024-03-03T23:28:24.619Z,12.32
2024-03-03T23:30:53.073Z,12.34
2024-03-03T23:33:22.981Z,12.33
2024-03-03T23:35:51.385Z,12.32
2024-03-03T23:38:19.883Z,12.30
2024-03-03T23:40:48.334Z,12.28
2024-03-03T23:43:16.675Z,12.28
2024-03-03T23:45:45.113Z,12.28
2024-03-03T23:48:13.471Z,12.25
2024-03-03T23:50:43.315Z,12.24
2024-03-03T23:53:11.832Z,12.22
2024-03-03T23:55:40.288Z,12.24
2024-03-03T23:58:09.092Z,12.21
